Aérodrome :
LOGIN :

S'inscrire | Disclaimer

   EN    FR    IT 

 










Légende :    VFR   VFR Marginal   IFR   IFR Intensif   IFR Très Intensif
Visi : 
Plafond : 
>= 8 km
>= 3000ft
5 à 8 km
1000 à 3000 ft
1500m à 5 km
500 à 1000 ft
800 à 1500m
200 à 500 ft
< 800m
< 200 ft
Symboles :   Orages  Brouillard  Fortes neiges  Fortes précipitations  Vent > 20 kt
SIGMETs :   Divers  Orages  Givrage  Turbulence  Onde Orograph.  Cendres Volcan.






- Altitude de l'aérodrome : 1084 ft
- Code IATA : EPL


LFSG - Épinal-Mirecourt

DERNIER METAR :
  • 140130Z AUTO 15006KT 120V180 CAVOK 03/02 Q1000

METARs EXPIRÉS :
  • 140100Z AUTO 14005KT 100V160 9999 FEW016 SCT150 BKN230 03/02 Q1000
  • 140030Z AUTO 17005KT 9999 SCT010 BKN015 03/02 Q1001
  • 140000Z AUTO 17008KT 9999 OVC009 04/03 Q1001
  • 132330Z AUTO 18009KT 9999 BKN010 OVC014 05/03 Q1002
  • 132300Z AUTO 17010KT 9999 OVC012 05/03 Q1002

TAF N/A



MET'MAP, la Météo Aéronautique d'un coup d'oeil ! - Copyright ORBIFLY Décembre 2007 - Disclaimer

ORBIFLY MET'MAP TEAM :

Programmation & Développement : Alexandra Zaïnal
Conception & Développement : Baudouin d'Aumeries
Co-Programmation & Développement : Marc-Olivier Méhu
Soutien technique & logistique : Manuel Goepfert

Contact : metmap@orbifly.com




SOURCES & CREDITS :

   NOAA